Time;durP1;ratioP1;P1;durP2;ratioP2;P2;SDS_P1;SDS_P2;PMS_P1;PMS_P2;Temp;Humidity;BMP_temperature;BMP_pressure;BME280_temperature;BME280_humidity;BME280_pressure;Samples;Min_cycle;Max_cycle;Signal;HPM_P1;HPM_P2
2022/09/08 00:04:59;;;;;;;7.18;6.43;;;;;;;17.65;67.29;99847.81;10008693;29;20057;-81
2022/09/08 00:10:02;;;;;;;7.95;7.25;;;;;;;17.67;67.26;99824.88;10012065;29;20064;-80
2022/09/08 00:15:08;;;;;;;9.60;7.93;;;;;;;17.68;67.62;99821.13;9998164;29;20053;-81
2022/09/08 00:20:10;;;;;;;8.52;7.60;;;;;;;17.72;67.48;99823.47;10002763;29;20057;-80
2022/09/08 00:25:13;;;;;;;8.63;7.43;;;;;;;17.73;67.51;99809.72;10002927;29;20088;-81
2022/09/08 00:30:18;;;;;;;8.43;7.57;;;;;;;17.72;67.12;99820.75;10021599;29;20065;-80
2022/09/08 00:35:21;;;;;;;8.63;7.72;;;;;;;17.68;67.54;99815.69;9999259;29;20504;-81
2022/09/08 00:40:26;;;;;;;9.35;8.35;;;;;;;17.68;67.56;99804.00;10006364;29;20061;-79
2022/09/08 00:45:37;;;;;;;9.40;8.43;;;;;;;17.65;67.70;99794.34;10026496;29;20053;-81
2022/09/08 00:50:40;;;;;;;8.73;7.82;;;;;;;17.56;67.13;99794.63;10002278;29;20046;-81
2022/09/08 00:55:43;;;;;;;9.40;8.45;;;;;;;17.28;67.81;99781.63;10008731;29;20049;-80
2022/09/08 01:00:48;;;;;;;11.95;10.75;;;;;;;17.08;69.13;99781.22;10014599;29;21158;-80
2022/09/08 01:05:57;;;;;;;11.60;10.50;;;;;;;16.90;70.40;99769.84;10008977;29;20065;-80
2022/09/08 01:16:29;;;;;;;13.80;10.65;;;;;;;17.14;69.63;99764.28;10023791;29;20384;-79
2022/09/08 01:21:45;;;;;;;11.50;10.32;;;;;;;17.16;69.23;99753.22;10007866;29;20112;-81
2022/09/08 01:27:09;;;;;;;11.98;10.70;;;;;;;17.10;69.44;99764.78;10012873;29;20049;-81
2022/09/08 01:32:13;;;;;;;11.13;9.98;;;;;;;17.15;68.98;99751.53;9981897;29;20084;-81
2022/09/08 01:37:16;;;;;;;12.85;9.88;;;;;;;17.10;68.77;99740.34;10010524;29;20060;-80
2022/09/08 01:42:20;;;;;;;10.70;9.25;;;;;;;17.11;68.72;99739.31;10006691;29;20049;-81
2022/09/08 01:47:23;;;;;;;11.55;10.35;;;;;;;17.08;68.73;99728.84;9999414;29;20148;-81
2022/09/08 01:52:26;;;;;;;13.80;11.18;;;;;;;17.14;69.19;99737.16;10003266;29;20427;-80
2022/09/08 01:57:31;;;;;;;12.45;10.38;;;;;;;17.17;68.86;99735.94;9997664;29;20064;-79
2022/09/08 02:02:34;;;;;;;11.40;10.30;;;;;;;17.12;69.06;99731.00;10026176;29;20061;-81
2022/09/08 02:07:37;;;;;;;14.20;11.35;;;;;;;17.09;69.21;99733.25;10003462;29;20050;-81
2022/09/08 02:12:42;;;;;;;15.20;11.63;;;;;;;17.10;69.12;99726.78;10004277;29;20053;-81
2022/09/08 02:17:44;;;;;;;16.02;13.55;;;;;;;17.06;69.46;99725.47;9997622;29;20076;-81
2022/09/08 02:22:47;;;;;;;16.60;14.77;;;;;;;17.02;70.13;99730.41;9985045;29;20121;-81
2022/09/08 02:27:53;;;;;;;17.77;14.90;;;;;;;17.09;70.29;99714.25;10003835;29;20124;-80
2022/09/08 02:32:56;;;;;;;17.25;14.68;;;;;;;17.14;70.03;99707.28;10017551;29;20077;-81
2022/09/08 02:37:59;;;;;;;16.25;13.68;;;;;;;17.23;69.93;99702.63;10006091;29;20108;-79
2022/09/08 02:43:04;;;;;;;17.67;14.27;;;;;;;17.23;69.81;99717.03;10004007;29;20057;-81
2022/09/08 02:48:07;;;;;;;17.02;15.13;;;;;;;17.16;69.71;99702.50;10004126;29;20054;-78
2022/09/08 02:53:10;;;;;;;18.55;16.52;;;;;;;17.19;69.79;99706.72;10027716;29;20053;-81
2022/09/08 02:58:14;;;;;;;20.67;16.80;;;;;;;17.10;69.72;99705.09;9984517;29;20084;-81
2022/09/08 03:03:17;;;;;;;16.77;14.93;;;;;;;16.54;71.53;99699.94;10007966;29;21224;-80
2022/09/08 03:08:23;;;;;;;15.25;13.10;;;;;;;16.20;72.14;99700.25;10006760;29;20408;-80
2022/09/08 03:13:28;;;;;;;15.90;13.65;;;;;;;16.30;72.27;99693.63;9988322;29;20062;-79
2022/09/08 03:18:31;;;;;;;17.30;14.07;;;;;;;16.47;72.13;99679.97;9998479;29;21556;-81
2022/09/08 03:23:34;;;;;;;14.80;13.25;;;;;;;16.67;71.20;99659.50;10017621;29;20440;-80
2022/09/08 03:28:39;;;;;;;13.55;12.18;;;;;;;16.64;70.84;99657.13;10003523;29;20056;-80
2022/09/08 03:33:42;;;;;;;15.88;14.27;;;;;;;16.72;70.96;99645.41;10008622;29;20066;-81
2022/09/08 03:38:45;;;;;;;15.02;13.43;;;;;;;16.71;71.14;99646.44;10012304;29;20502;-81
2022/09/08 03:43:51;;;;;;;14.80;13.23;;;;;;;16.75;71.28;99640.44;10017393;29;20054;-81
2022/09/08 03:48:54;;;;;;;17.42;15.63;;;;;;;16.84;71.14;99634.94;10018955;29;20701;-82
2022/09/08 03:54:46;;;;;;;18.45;15.00;;;;;;;16.81;70.82;99628.88;10007486;29;20053;-80
2022/09/08 03:59:24;;;;;;;17.83;13.63;;;;;;;16.84;70.69;99619.53;10000977;29;20605;-81
2022/09/08 04:04:27;;;;;;;14.68;13.15;;;;;;;16.87;70.79;99615.63;10000986;29;20136;-82
2022/09/08 04:09:30;;;;;;;16.42;13.25;;;;;;;16.81;70.60;99604.47;10007150;29;20057;-80
2022/09/08 04:14:34;;;;;;;14.25;12.32;;;;;;;16.76;70.53;99601.47;10024356;29;20113;-81
2022/09/08 04:19:37;;;;;;;16.27;13.93;;;;;;;16.20;71.28;99605.44;10017742;29;21229;-81
2022/09/08 04:24:40;;;;;;;17.40;14.48;;;;;;;15.42;75.12;99596.38;10019647;29;20197;-82
2022/09/08 04:29:44;;;;;;;20.30;15.98;;;;;;;15.88;74.55;99594.63;10002526;29;20049;-81
2022/09/08 04:34:49;;;;;;;22.58;16.88;;;;;;;16.15;73.48;99590.59;10009626;29;20061;-82
2022/09/08 04:39:52;;;;;;;19.98;15.80;;;;;;;16.39;72.89;99587.88;10011207;29;20182;-81
2022/09/08 04:44:57;;;;;;;16.17;14.48;;;;;;;15.65;73.57;99591.88;10017433;29;21203;-81
2022/09/08 04:50:00;;;;;;;18.00;16.13;;;;;;;15.61;74.29;99604.09;9998958;29;20133;-81
2022/09/08 04:55:03;;;;;;;15.65;13.48;;;;;;;15.64;75.13;99606.44;10016518;29;20050;-80
2022/09/08 05:00:08;;;;;;;11.52;10.32;;;;;;;15.81;75.67;99612.59;10008153;29;20161;-81
2022/09/08 05:05:11;;;;;;;13.18;10.15;;;;;;;16.24;74.62;99626.59;10020008;29;20194;-80
2022/09/08 05:10:14;;;;;;;9.73;8.77;;;;;;;16.62;72.44;99604.13;9992986;29;20061;-80
2022/09/08 05:15:19;;;;;;;9.25;8.18;;;;;;;16.79;71.80;99608.41;10004692;29;20085;-81
2022/09/08 05:20:22;;;;;;;9.68;8.50;;;;;;;17.08;70.58;99601.31;9982747;29;20642;-80
2022/09/08 05:25:25;;;;;;;8.80;7.97;;;;;;;17.24;69.50;99593.03;10029617;29;20113;-79
2022/09/08 05:30:29;;;;;;;11.85;10.65;;;;;;;17.31;69.36;99585.00;10007343;29;20061;-81
2022/09/08 05:35:35;;;;;;;10.43;9.48;;;;;;;17.21;69.27;99583.38;10010286;29;20057;-80
2022/09/08 05:40:38;;;;;;;10.85;9.73;;;;;;;17.27;69.33;99580.97;9993347;29;20053;-80
2022/09/08 05:45:45;;;;;;;10.52;9.45;;;;;;;17.31;69.54;99590.44;10001498;29;20535;-80
2022/09/08 05:50:48;;;;;;;12.52;11.32;;;;;;;17.52;68.81;99600.50;9997659;29;20073;-79
2022/09/08 05:55:58;;;;;;;14.23;11.38;;;;;;;17.68;68.49;99589.44;10018228;29;20744;-78
2022/09/08 06:01:05;;;;;;;19.30;15.90;;;;;;;17.56;68.63;99608.09;10028405;29;20089;-78
2022/09/08 06:06:09;;;;;;;19.33;16.70;;;;;;;17.55;68.64;99598.28;10009590;29;20049;-79
2022/09/08 06:11:13;;;;;;;17.02;14.75;;;;;;;16.51;73.01;99613.53;10012572;29;20057;-80
2022/09/08 06:16:17;;;;;;;16.02;12.25;;;;;;;16.73;72.06;99600.97;10015264;29;20060;-80
2022/09/08 06:21:23;;;;;;;13.38;11.55;;;;;;;17.19;71.30;99612.56;10006622;29;20049;-80
2022/09/08 06:26:43;;;;;;;14.88;12.48;;;;;;;17.40;70.32;99605.56;9998214;29;20054;-81
2022/09/08 06:31:53;;;;;;;12.75;11.50;;;;;;;17.59;69.48;99613.16;9990442;29;20053;-80
2022/09/08 06:37:01;;;;;;;12.85;9.52;;;;;;;17.25;70.82;99613.69;10008234;29;20054;-79
2022/09/08 06:42:10;;;;;;;10.27;8.75;;;;;;;17.50;70.34;99613.41;9990881;29;20620;-79
2022/09/08 06:47:19;;;;;;;19.75;15.45;;;;;;;17.02;71.60;99606.44;9992549;29;20061;-80
2022/09/08 06:52:33;;;;;;;16.33;11.25;;;;;;;17.07;73.23;99611.34;10002099;29;20060;-82
2022/09/08 06:58:08;;;;;;;17.80;13.88;;;;;;;16.96;75.10;99607.19;9984894;29;20106;-80
2022/09/08 07:03:30;;;;;;;20.05;15.73;;;;;;;16.84;76.79;99614.13;10004791;29;20265;-80
2022/09/08 07:09:01;;;;;;;16.40;14.77;;;;;;;16.68;78.15;99619.69;10039453;29;20076;-82
2022/09/08 07:14:26;;;;;;;16.65;14.05;;;;;;;16.59;78.48;99627.88;9994752;29;20058;-82
2022/09/08 07:19:41;;;;;;;17.35;13.68;;;;;;;16.76;79.53;99641.31;10051881;29;21538;-80
2022/09/08 07:24:47;;;;;;;17.25;13.10;;;;;;;16.84;79.31;99654.81;10023487;29;20054;-82
2022/09/08 07:29:54;;;;;;;17.65;13.18;;;;;;;16.75;80.25;99648.56;10024219;29;20057;-82
2022/09/08 07:35:02;;;;;;;15.80;13.45;;;;;;;16.77;80.61;99661.97;10024867;29;20049;-81
2022/09/08 07:40:16;;;;;;;17.83;15.05;;;;;;;16.49;81.56;99665.22;10007233;29;20093;-79
2022/09/08 07:45:19;;;;;;;15.45;13.25;;;;;;;16.46;82.92;99659.34;10021560;29;20192;-81
2022/09/08 07:50:53;;;;;;;17.50;13.85;;;;;;;16.50;84.33;99656.06;9996912;29;20057;-81
2022/09/08 07:55:55;;;;;;;13.15;10.80;;;;;;;16.30;83.94;99666.53;10006919;29;20052;-81
2022/09/08 08:01:08;;;;;;;16.83;10.57;;;;;;;16.16;84.75;99661.84;10014797;29;20062;-81
2022/09/08 08:06:18;;;;;;;12.85;11.27;;;;;;;16.51;84.22;99662.31;10018371;29;20077;-80
2022/09/08 08:11:37;;;;;;;12.10;10.65;;;;;;;16.27;85.14;99661.47;9996504;29;20057;-80
2022/09/08 08:24:02;;;;;;;14.50;10.70;;;;;;;16.42;85.16;99671.53;10161106;29;20043;-76
2022/09/08 08:29:26;;;;;;;14.02;12.57;;;;;;;16.56;85.66;99670.75;10184747;29;20485;-77
2022/09/08 08:34:32;;;;;;;14.95;12.68;;;;;;;16.48;85.17;99662.69;10212704;29;20043;-76
2022/09/08 08:39:39;;;;;;;15.30;11.18;;;;;;;16.41;86.71;99661.75;10203913;29;20048;-79
2022/09/08 08:44:52;;;;;;;14.70;11.65;;;;;;;16.48;86.87;99655.44;10214377;29;20119;-79
2022/09/08 08:50:29;;;;;;;13.15;11.75;;;;;;;16.41;86.85;99653.59;10206545;29;20078;-79
2022/09/08 08:55:45;;;;;;;14.43;12.05;;;;;;;16.44;87.08;99658.66;10225883;29;20048;-75
2022/09/08 09:00:55;;;;;;;16.67;13.27;;;;;;;16.92;87.34;99662.88;10196649;29;20593;-79
2022/09/08 09:06:19;;;;;;;16.55;13.60;;;;;;;16.92;87.07;99668.28;10200702;29;20043;-77
2022/09/08 09:11:58;;;;;;;13.55;12.05;;;;;;;16.70;87.16;99670.00;10209630;29;20499;-80
2022/09/08 09:17:18;;;;;;;16.08;12.15;;;;;;;16.57;87.65;99673.31;10132603;29;20075;-77
2022/09/08 09:22:29;;;;;;;15.65;12.40;;;;;;;16.21;89.33;99682.97;10206929;29;20047;-78
2022/09/08 09:27:42;;;;;;;13.68;12.15;;;;;;;16.28;89.36;99681.28;10197907;29;20048;-79
2022/09/08 09:33:04;;;;;;;18.35;14.73;;;;;;;16.68;89.27;99682.03;10200500;29;20079;-79
2022/09/08 09:38:35;;;;;;;15.83;14.17;;;;;;;16.82;90.10;99678.53;10204923;29;20075;-79
2022/09/08 09:44:02;;;;;;;17.35;13.93;;;;;;;16.97;89.23;99671.28;10199114;29;20493;-79
2022/09/08 09:49:22;;;;;;;15.02;13.15;;;;;;;17.02;89.07;99660.72;10201788;29;20104;-77
2022/09/08 09:54:42;;;;;;;13.65;12.32;;;;;;;16.98;90.38;99674.84;10203519;29;20048;-79
2022/09/08 10:00:12;;;;;;;14.15;12.20;;;;;;;17.23;90.42;99675.50;10177191;29;20056;-79
2022/09/08 10:05:57;;;;;;;12.73;11.43;;;;;;;17.26;89.62;99666.97;10193863;29;20090;-79
2022/09/08 10:11:27;;;;;;;12.73;11.52;;;;;;;17.24;89.94;99661.72;10200749;29;20071;-77
2022/09/08 10:17:04;;;;;;;11.93;10.82;;;;;;;16.63;89.21;99649.22;10210742;29;20071;-78
2022/09/08 10:22:40;;;;;;;12.93;11.73;;;;;;;16.58;89.72;99639.72;10211105;29;20043;-78
2022/09/08 10:28:13;;;;;;;15.75;14.13;;;;;;;16.61;90.33;99638.53;10201299;29;20485;-79
2022/09/08 10:33:55;;;;;;;15.45;13.95;;;;;;;17.00;89.76;99634.78;10201659;29;20056;-78
2022/09/08 10:39:00;;;;;;;18.80;15.13;;;;;;;16.90;89.54;99634.22;10207454;29;20047;-78
2022/09/08 10:44:16;;;;;;;14.00;12.63;;;;;;;16.97;89.84;99638.72;10199297;29;20078;-78
2022/09/08 10:50:12;;;;;;;10.13;9.32;;;;;;;16.36;88.53;99633.28;10216804;29;20209;-79
2022/09/08 10:55:44;;;;;;;11.75;10.65;;;;;;;17.29;87.45;99625.88;10207271;29;20063;-78
2022/09/08 11:01:00;;;;;;;8.88;8.07;;;;;;;16.93;85.98;99613.00;10214976;29;20075;-78
2022/09/08 11:06:08;;;;;;;10.10;9.20;;;;;;;17.68;87.73;99622.88;10222632;29;20052;-78
2022/09/08 11:11:57;;;;;;;9.57;8.68;;;;;;;17.81;87.27;99618.66;10218691;29;20477;-80
2022/09/08 11:17:13;;;;;;;9.90;9.10;;;;;;;17.70;83.99;99620.81;10240663;29;20126;-75
2022/09/08 11:22:46;;;;;;;9.57;8.73;;;;;;;17.40;84.26;99619.16;10231710;29;20051;-76
2022/09/08 11:28:04;;;;;;;9.73;8.93;;;;;;;17.49;84.79;99623.44;10230198;29;20072;-77
2022/09/08 11:33:26;;;;;;;10.88;9.90;;;;;;;17.21;83.76;99623.25;10233774;29;20048;-76
2022/09/08 11:38:57;;;;;;;11.32;10.23;;;;;;;16.85;85.76;99621.22;10222984;29;20044;-75
2022/09/08 11:44:37;;;;;;;12.15;10.95;;;;;;;16.71;86.74;99622.03;10206590;29;20047;-78
2022/09/08 11:50:19;;;;;;;13.23;11.98;;;;;;;15.99;90.34;99625.91;10195570;29;20048;-78
2022/09/08 11:56:04;;;;;;;16.00;14.35;;;;;;;16.03;91.59;99632.63;10185766;29;20076;-77
2022/09/08 12:01:19;;;;;;;18.88;16.83;;;;;;;15.74;95.70;99654.09;10198237;29;20520;-76
2022/09/08 12:06:38;;;;;;;7.75;7.00;;;;;;;15.52;92.19;99661.94;10186754;29;20048;-76
2022/09/08 12:12:15;;;;;;;6.80;6.20;;;;;;;15.07;93.10;99667.97;10186476;29;20044;-77
2022/09/08 12:17:28;;;;;;;12.23;8.48;;;;;;;15.35;92.62;99668.44;10188963;29;20402;-77
2022/09/08 12:22:39;;;;;;;;;;;;;;;15.41;94.26;99684.84;10206729;29;20078;-77
2022/09/08 12:28:00;;;;;;;15.95;11.95;;;;;;;15.26;96.19;99670.28;10185832;29;19958;-76
2022/09/08 12:33:30;;;;;;;12.85;11.07;;;;;;;15.36;95.84;99675.53;10206154;29;20500;-77
2022/09/08 12:38:56;;;;;;;12.13;10.05;;;;;;;15.39;96.44;99681.47;10185244;29;20066;-77
2022/09/08 12:44:12;;;;;;;10.35;9.30;;;;;;;15.99;99.49;99676.50;10204458;29;20086;-78
2022/09/08 12:49:48;;;;;;;7.75;7.05;;;;;;;16.61;93.86;99670.22;10220134;29;20048;-78
2022/09/08 12:55:03;;;;;;;5.18;4.70;;;;;;;16.75;93.42;99672.97;10188224;29;20064;-78
2022/09/08 13:00:12;;;;;;;4.78;4.38;;;;;;;17.73;93.36;99676.63;10219527;29;20052;-78
2022/09/08 13:05:31;;;;;;;3.42;3.13;;;;;;;18.34;84.41;99670.91;10213844;29;20055;-78
2022/09/08 13:10:36;;;;;;;2.72;2.53;;;;;;;17.79;83.95;99670.44;10212079;29;20060;-78
2022/09/08 13:15:46;;;;;;;8.73;3.05;;;;;;;18.47;78.62;99671.06;10210027;29;20051;-78
2022/09/08 13:20:54;;;;;;;4.47;2.92;;;;;;;18.87;81.14;99667.91;10190875;29;20052;-78
2022/09/08 13:26:06;;;;;;;4.53;2.80;;;;;;;18.38;76.35;99680.38;10213857;29;20047;-76
2022/09/08 13:31:22;;;;;;;3.05;2.78;;;;;;;19.19;75.49;99671.94;10225300;29;20449;-76
2022/09/08 13:36:42;;;;;;;2.50;2.30;;;;;;;20.12;72.04;99680.69;10217241;29;20076;-79
2022/09/08 13:42:05;;;;;;;2.97;2.65;;;;;;;20.77;66.07;99681.94;10198252;29;20078;-79
2022/09/08 13:47:42;;;;;;;2.50;2.30;;;;;;;20.39;65.88;99676.19;10194009;29;20044;-79
2022/09/08 13:53:07;;;;;;;4.15;2.58;;;;;;;19.63;66.08;99671.63;10193902;29;20067;-78
2022/09/08 13:58:32;;;;;;;2.58;2.28;;;;;;;20.40;64.73;99682.47;10213025;29;20064;-78
2022/09/08 14:03:45;;;;;;;3.75;2.70;;;;;;;19.64;66.58;99678.78;10213821;29;20087;-78
2022/09/08 14:08:55;;;;;;;2.92;1.77;;;;;;;21.78;68.32;99680.84;10195266;29;20044;-78
2022/09/08 14:14:34;;;;;;;3.65;2.00;;;;;;;21.09;61.90;99670.41;10200467;29;20075;-79
2022/09/08 14:19:49;;;;;;;4.05;2.30;;;;;;;19.27;64.18;99676.41;10205479;29;20048;-78
2022/09/08 14:25:02;;;;;;;2.95;2.55;;;;;;;19.55;64.90;99676.38;10194738;29;20106;-78
2022/09/08 14:30:13;;;;;;;;;;;;;;;19.55;65.29;99671.75;10194659;29;20044;-77
2022/09/08 14:35:38;;;;;;;4.03;2.63;;;;;;;20.78;67.98;99669.94;10170519;23;19934;-81
2022/09/08 14:40:47;;;;;;;2.88;2.30;;;;;;;22.77;70.87;99662.28;10130846;29;20104;-82
2022/09/08 14:45:55;;;;;;;3.20;2.00;;;;;;;23.67;60.48;99656.41;10126784;29;20060;-82
2022/09/08 14:51:21;;;;;;;2.85;2.25;;;;;;;22.85;61.59;99661.16;10113831;29;20589;-82
2022/09/08 14:56:29;;;;;;;2.67;2.47;;;;;;;22.36;54.60;99665.47;10118559;29;20049;-82
2022/09/08 15:01:36;;;;;;;2.80;2.47;;;;;;;22.55;54.85;99659.91;10126222;29;20073;-82
2022/09/08 15:06:54;;;;;;;3.90;2.60;;;;;;;22.77;53.76;99656.81;10116175;29;20044;-82
2022/09/08 15:11:58;;;;;;;2.90;2.00;;;;;;;22.61;55.49;99657.34;10131417;29;20080;-83
2022/09/08 15:17:16;;;;;;;3.70;2.60;;;;;;;22.33;54.32;99662.09;10124030;29;20483;-83
2022/09/08 15:22:37;;;;;;;2.63;2.42;;;;;;;22.03;54.93;99661.84;10129451;29;20082;-82
2022/09/08 15:27:41;;;;;;;3.13;2.40;;;;;;;20.21;57.33;99667.69;10105945;29;20048;-82
2022/09/08 15:32:56;;;;;;;2.70;2.50;;;;;;;20.28;59.34;99668.56;10110515;29;20048;-82
2022/09/08 15:38:11;;;;;;;3.72;2.95;;;;;;;20.37;58.65;99652.91;10112499;29;20049;-82
2022/09/08 15:43:29;;;;;;;3.70;3.38;;;;;;;20.10;58.47;99656.38;10111714;29;20053;-85
2022/09/08 15:48:50;;;;;;;4.30;2.90;;;;;;;20.37;59.39;99659.19;10114020;29;20084;-82
2022/09/08 15:54:06;;;;;;;5.82;3.10;;;;;;;20.26;59.17;99660.59;10134203;29;20045;-82
2022/09/08 15:59:22;;;;;;;5.35;3.38;;;;;;;21.12;57.80;99649.00;10141421;29;20098;-82
2022/09/08 16:04:35;;;;;;;3.65;3.35;;;;;;;22.90;53.42;99632.06;10135956;29;20052;-82
2022/09/08 16:09:56;;;;;;;;;;;;;;;22.96;50.71;99635.81;10138070;29;20463;-82
2022/09/08 16:15:05;;;;;;;2.88;2.67;;;;;;;23.57;51.17;99634.19;10119965;29;19976;-82
2022/09/08 16:20:18;;;;;;;3.45;2.53;;;;;;;24.28;48.84;99630.75;10130664;29;20052;-82
2022/09/08 16:25:34;;;;;;;2.75;2.50;;;;;;;23.44;50.01;99630.50;10130564;29;20120;-82
2022/09/08 16:30:48;;;;;;;2.80;2.60;;;;;;;23.28;50.20;99622.03;10128140;29;20071;-82
2022/09/08 16:36:07;;;;;;;2.42;2.20;;;;;;;23.31;53.36;99625.19;10135097;29;20144;-82
2022/09/08 16:41:23;;;;;;;4.03;3.35;;;;;;;22.93;50.10;99622.56;10130685;29;20434;-82
2022/09/08 16:46:34;;;;;;;4.25;3.85;;;;;;;22.36;51.58;99628.00;10135153;29;20053;-82
2022/09/08 16:51:50;;;;;;;4.80;3.05;;;;;;;22.40;52.42;99618.28;10163528;29;20123;-82
2022/09/08 16:57:03;;;;;;;3.58;2.75;;;;;;;22.27;52.55;99634.78;10116351;29;20487;-82
2022/09/08 17:02:29;;;;;;;3.00;2.70;;;;;;;21.53;53.91;99638.84;10143039;29;20055;-82
2022/09/08 17:07:38;;;;;;;3.00;2.73;;;;;;;21.00;56.04;99651.47;10127881;29;20056;-83
2022/09/08 17:12:44;;;;;;;3.63;2.85;;;;;;;21.09;56.53;99651.31;10141916;29;20117;-82
2022/09/08 17:18:14;;;;;;;6.13;3.58;;;;;;;20.96;56.84;99647.50;10130358;29;20072;-82
2022/09/08 17:23:29;;;;;;;5.50;4.10;;;;;;;20.62;58.46;99653.16;10136777;29;20493;-83
2022/09/08 17:29:12;;;;;;;5.25;4.00;;;;;;;20.16;59.60;99660.16;10134189;29;20112;-83
2022/09/08 17:34:41;;;;;;;4.60;4.20;;;;;;;19.81;61.10;99656.66;10111040;29;20044;-81
2022/09/08 17:39:50;;;;;;;4.80;4.22;;;;;;;19.42;62.79;99656.19;10120677;29;20065;-82
2022/09/08 17:45:02;;;;;;;5.30;4.18;;;;;;;19.26;63.88;99664.69;10143930;29;20049;-83
2022/09/08 17:50:19;;;;;;;5.60;3.75;;;;;;;19.08;62.38;99657.00;10121028;29;20455;-82
2022/09/08 17:55:32;;;;;;;4.43;3.47;;;;;;;19.00;62.72;99666.13;10133798;29;20073;-82
2022/09/08 18:00:37;;;;;;;4.53;2.50;;;;;;;18.77;62.30;99658.19;10125934;29;20068;-82
2022/09/08 18:05:45;;;;;;;4.20;1.98;;;;;;;18.68;59.76;99667.53;10126456;29;20063;-82
2022/09/08 18:11:04;;;;;;;4.55;2.00;;;;;;;18.83;59.19;99655.75;10119761;29;20045;-82
2022/09/08 18:16:21;;;;;;;2.15;1.30;;;;;;;18.73;58.49;99662.34;10120339;29;20071;-82
2022/09/08 18:22:02;;;;;;;2.08;1.35;;;;;;;18.74;57.71;99661.28;10107370;29;20048;-83
2022/09/08 18:27:19;;;;;;;2.92;1.20;;;;;;;18.60;57.82;99672.25;10105894;29;20060;-82
2022/09/08 18:32:47;;;;;;;7.65;1.80;;;;;;;18.50;57.91;99673.41;10114377;29;20045;-83
2022/09/08 18:37:55;;;;;;;2.10;1.30;;;;;;;18.47;58.72;99675.66;10130220;29;20164;-82
2022/09/08 18:43:15;;;;;;;2.63;1.70;;;;;;;18.30;59.98;99684.06;10117619;29;20096;-82
2022/09/08 18:48:22;;;;;;;4.43;1.80;;;;;;;18.12;60.41;99681.75;10129873;29;20045;-82
2022/09/08 18:53:32;;;;;;;2.53;1.23;;;;;;;18.01;60.62;99692.28;10106195;29;20068;-82
2022/09/08 18:58:58;;;;;;;3.13;1.20;;;;;;;17.80;61.07;99695.72;10109622;29;20176;-82
2022/09/08 19:04:03;;;;;;;2.55;1.10;;;;;;;17.69;61.01;99692.47;10138492;29;20128;-82
2022/09/08 19:09:27;;;;;;;2.80;1.10;;;;;;;17.66;61.54;99692.84;10129690;29;20131;-82
2022/09/08 19:14:40;;;;;;;1.58;1.45;;;;;;;17.56;61.86;99694.16;10134613;29;20053;-81
2022/09/08 19:19:55;;;;;;;3.67;1.70;;;;;;;17.50;62.69;99700.31;10131285;29;20093;-82
2022/09/08 19:25:00;;;;;;;1.80;1.57;;;;;;;17.41;63.09;99703.09;10128850;29;20579;-82
2022/09/08 19:30:06;;;;;;;2.95;1.90;;;;;;;17.33;63.58;99702.34;10143356;29;20072;-82
2022/09/08 19:35:18;;;;;;;4.97;2.00;;;;;;;17.27;64.16;99703.94;10146771;29;20052;-83
2022/09/08 19:40:33;;;;;;;3.70;2.30;;;;;;;17.26;64.14;99707.69;10136701;29;20052;-82
2022/09/08 19:45:42;;;;;;;2.83;1.83;;;;;;;17.16;64.54;99705.22;10124279;29;20406;-84
2022/09/08 19:50:56;;;;;;;4.57;2.00;;;;;;;17.12;64.59;99703.03;10124964;29;20045;-84
2022/09/08 19:56:06;;;;;;;4.03;1.90;;;;;;;17.12;64.69;99706.59;10138124;29;20079;-85
2022/09/08 20:01:38;;;;;;;3.20;1.58;;;;;;;17.16;64.83;99707.09;10116055;29;20570;-82
2022/09/08 20:06:57;;;;;;;3.57;1.83;;;;;;;17.17;64.80;99714.22;10131201;29;20048;-83
2022/09/08 20:12:15;;;;;;;4.90;1.88;;;;;;;17.12;64.83;99719.31;10135944;29;20048;-83
2022/09/08 20:17:24;;;;;;;3.47;1.98;;;;;;;17.07;65.33;99727.16;10140145;29;20040;-82
2022/09/08 20:22:43;;;;;;;4.72;1.73;;;;;;;16.98;65.85;99742.66;10128813;29;20076;-83
2022/09/08 20:28:00;;;;;;;1.90;1.63;;;;;;;16.86;66.04;99731.38;10135056;29;20045;-82
2022/09/08 20:33:14;;;;;;;5.22;2.28;;;;;;;16.87;66.31;99740.38;10137719;29;20127;-82
2022/09/08 20:38:44;;;;;;;2.88;1.38;;;;;;;16.75;66.95;99737.22;10107864;29;20068;-80
2022/09/08 20:43:50;;;;;;;3.47;1.70;;;;;;;16.68;67.28;99734.41;10127190;29;20487;-81
2022/09/08 20:49:15;;;;;;;2.05;1.40;;;;;;;16.59;67.77;99739.03;10138631;29;20073;-81
2022/09/08 20:54:28;;;;;;;2.33;1.52;;;;;;;16.58;67.73;99744.63;10128644;29;20048;-81
2022/09/08 20:59:34;;;;;;;2.67;1.38;;;;;;;16.63;67.20;99733.25;10126456;29;20057;-81
2022/09/08 21:04:40;;;;;;;1.33;1.20;;;;;;;16.68;66.83;99742.53;10119670;29;20070;-81
2022/09/08 21:09:56;;;;;;;2.25;1.30;;;;;;;16.59;66.57;99740.88;10126318;29;20053;-82
2022/09/08 21:15:05;;;;;;;2.00;1.10;;;;;;;16.30;66.80;99736.16;10111380;29;20053;-82
2022/09/08 21:20:18;;;;;;;3.17;1.20;;;;;;;16.49;66.21;99741.13;10135333;29;20052;-82
2022/09/08 21:25:27;;;;;;;3.60;1.35;;;;;;;16.38;64.99;99744.25;10130604;29;20045;-83
2022/09/08 21:30:47;;;;;;;2.10;0.88;;;;;;;16.45;64.57;99734.34;10133816;29;20072;-84
2022/09/08 21:35:56;;;;;;;4.40;1.45;;;;;;;16.48;64.84;99742.16;10112094;29;20049;-82
2022/09/08 21:41:06;;;;;;;3.35;1.02;;;;;;;16.22;67.09;99742.44;10154478;29;20108;-80
2022/09/08 21:46:16;;;;;;;2.60;1.23;;;;;;;16.12;67.73;99734.50;10143668;29;20052;-81
2022/09/08 21:51:55;;;;;;;2.10;1.00;;;;;;;16.11;68.17;99731.97;10135668;29;20148;-81
2022/09/08 21:57:20;;;;;;;3.97;1.25;;;;;;;16.03;68.23;99729.31;9989478;29;20123;-81
2022/09/08 22:02:31;;;;;;;1.80;1.13;;;;;;;15.97;68.91;99730.84;10088707;29;20076;-80
2022/09/08 22:07:43;;;;;;;5.25;1.27;;;;;;;16.04;68.75;99739.94;10177191;23;20045;-80
2022/09/08 22:12:53;;;;;;;2.15;1.50;;;;;;;15.96;68.84;99748.09;10156915;29;20108;-77
2022/09/08 22:17:59;;;;;;;3.55;1.38;;;;;;;15.83;69.52;99742.41;10102188;29;20072;-80
2022/09/08 22:23:20;;;;;;;2.47;1.25;;;;;;;15.78;69.68;99739.38;10092860;29;20084;-79
2022/09/08 22:28:31;;;;;;;4.78;1.30;;;;;;;15.57;69.78;99751.59;10083595;29;20071;-80
2022/09/08 22:33:36;;;;;;;4.07;1.65;;;;;;;15.56;69.95;99749.94;10088831;29;20049;-79
2022/09/08 22:38:59;;;;;;;1.95;1.10;;;;;;;15.61;69.65;99736.72;10092033;29;20049;-79
2022/09/08 22:44:19;;;;;;;1.40;0.75;;;;;;;15.60;69.23;99736.88;10098244;29;20053;-79
2022/09/08 22:49:40;;;;;;;2.08;0.90;;;;;;;15.55;68.77;99733.84;10098862;29;20050;-80
2022/09/08 22:54:48;;;;;;;2.92;1.00;;;;;;;15.45;68.84;99739.47;10088023;29;20085;-80
2022/09/08 22:59:56;;;;;;;3.72;1.25;;;;;;;15.60;68.30;99731.47;10105323;29;20074;-79
2022/09/08 23:05:07;;;;;;;1.92;1.00;;;;;;;15.56;68.51;99733.69;10094583;29;20053;-79
2022/09/08 23:10:15;;;;;;;4.55;0.93;;;;;;;15.46;68.56;99733.03;10097104;29;20138;-78
2022/09/08 23:15:22;;;;;;;1.30;0.73;;;;;;;15.38;68.64;99731.16;10088580;29;20053;-80
2022/09/08 23:20:38;;;;;;;1.45;0.70;;;;;;;15.41;68.24;99727.28;10103849;29;20071;-79
2022/09/08 23:25:42;;;;;;;3.08;1.35;;;;;;;15.39;68.00;99723.91;10093088;29;20546;-79
2022/09/08 23:30:53;;;;;;;1.13;0.68;;;;;;;15.43;67.93;99720.69;10080207;29;20053;-79
2022/09/08 23:36:00;;;;;;;2.92;1.15;;;;;;;15.33;68.03;99720.00;10102652;29;20053;-80
2022/09/08 23:41:03;;;;;;;1.60;0.57;;;;;;;15.27;68.23;99712.56;10089393;29;20109;-79
2022/09/08 23:46:17;;;;;;;4.00;0.70;;;;;;;15.23;68.27;99713.91;10095564;29;20518;-79
2022/09/08 23:51:23;;;;;;;2.58;1.00;;;;;;;15.23;68.34;99719.34;10110740;29;20049;-79
2022/09/08 23:56:27;;;;;;;3.28;1.00;;;;;;;15.24;68.63;99710.19;10102229;29;20053;-79
